Time;durP1;ratioP1;P1;durP2;ratioP2;P2;SDS_P1;SDS_P2;PMS_P1;PMS_P2;Temp;Humidity;BMP_temperature;BMP_pressure;BME280_temperature;BME280_humidity;BME280_pressure;Samples;Min_cycle;Max_cycle;Signal;HPM_P1;HPM_P2
2023/12/12 00:01:51;;;;;;;4.97;2.30;;;9.90;98.00;;;;;;5010870;28;20990;-69
2023/12/12 00:04:18;;;;;;;11.73;2.60;;;9.70;98.00;;;;;;5010806;28;20559;-69
2023/12/12 00:06:46;;;;;;;5.60;2.50;;;9.60;98.00;;;;;;5010888;28;20443;-69
2023/12/12 00:09:13;;;;;;;4.83;2.50;;;9.60;98.00;;;;;;5010935;28;20456;-69
2023/12/12 00:11:40;;;;;;;3.20;1.90;;;9.50;98.00;;;;;;4993566;28;20452;-69
2023/12/12 00:14:08;;;;;;;4.80;2.60;;;9.50;98.00;;;;;;5011092;28;20454;-69
2023/12/12 00:16:35;;;;;;;4.10;2.30;;;9.40;98.00;;;;;;5011094;28;20524;-69
2023/12/12 00:19:02;;;;;;;7.50;2.40;;;9.30;98.00;;;;;;5010936;28;20459;-69
2023/12/12 00:21:30;;;;;;;6.03;2.90;;;9.20;98.00;;;;;;5011001;28;20456;-70
2023/12/12 00:23:59;;;;;;;4.63;2.30;;;9.20;98.00;;;;;;5011037;28;21083;-69
2023/12/12 00:26:26;;;;;;;4.60;2.10;;;9.20;98.00;;;;;;5011270;28;20455;-69
2023/12/12 00:28:53;;;;;;;4.17;2.20;;;9.10;98.00;;;;;;5011921;28;20461;-69
2023/12/12 00:31:20;;;;;;;3.87;2.40;;;9.20;98.00;;;;;;4997126;28;20791;-69
2023/12/12 00:33:47;;;;;;;4.80;2.40;;;9.20;98.00;;;;;;5014188;28;20987;-69
2023/12/12 00:36:14;;;;;;;7.20;2.43;;;9.10;98.00;;;;;;5014133;28;20461;-69
2023/12/12 00:38:41;;;;;;;4.00;2.50;;;9.00;98.00;;;;;;5014063;28;20510;-69
2023/12/12 00:41:10;;;;;;;5.87;2.70;;;9.10;98.00;;;;;;5014249;28;20459;-69
2023/12/12 00:43:37;;;;;;;5.40;2.20;;;9.00;98.00;;;;;;5013981;28;20490;-69
2023/12/12 00:46:05;;;;;;;6.47;2.53;;;8.90;98.00;;;;;;5014067;28;20448;-69
2023/12/12 00:48:32;;;;;;;3.50;2.30;;;9.00;98.00;;;;;;5013926;28;20447;-69
2023/12/12 00:50:59;;;;;;;7.80;2.47;;;9.00;98.00;;;;;;5013624;28;21005;-68
2023/12/12 00:53:27;;;;;;;5.50;2.70;;;9.00;98.00;;;;;;5013949;28;20464;-69
2023/12/12 00:55:54;;;;;;;5.50;2.50;;;8.90;98.00;;;;;;4996551;28;20503;-69
2023/12/12 00:58:23;;;;;;;5.67;2.60;;;8.90;98.00;;;;;;5014007;28;20594;-69
2023/12/12 01:00:53;;;;;;;4.33;2.03;;;9.00;98.00;;;;;;5013589;28;20444;-69
2023/12/12 01:03:20;;;;;;;5.80;2.10;;;8.90;98.00;;;;;;4996149;28;20462;-69
2023/12/12 01:05:47;;;;;;;6.73;2.40;;;8.90;98.00;;;;;;5013464;28;20461;-69
2023/12/12 01:08:14;;;;;;;6.03;2.57;;;8.90;98.00;;;;;;5013791;28;20455;-69
2023/12/12 01:10:41;;;;;;;4.40;2.53;;;8.90;98.00;;;;;;5013374;28;20498;-70
2023/12/12 01:13:08;;;;;;;4.83;2.33;;;8.70;98.00;;;;;;4996067;28;20461;-69
2023/12/12 01:15:36;;;;;;;5.63;2.43;;;8.80;98.00;;;;;;5013368;28;20943;-69
2023/12/12 01:18:04;;;;;;;5.53;2.27;;;8.80;98.00;;;;;;5013195;28;20799;-69
2023/12/12 01:20:31;;;;;;;3.07;1.83;;;8.80;98.00;;;;;;4995893;28;20464;-69
2023/12/12 01:23:02;;;;;;;4.00;1.93;;;8.80;98.00;;;;;;4995797;28;20458;-69
2023/12/12 01:25:30;;;;;;;6.00;2.77;;;8.80;98.00;;;;;;5013209;28;20534;-69
2023/12/12 01:27:57;;;;;;;4.10;2.33;;;8.70;98.00;;;;;;4995918;28;20851;-69
2023/12/12 01:30:24;;;;;;;6.03;2.13;;;8.70;98.00;;;;;;5012876;28;20474;-69
2023/12/12 01:32:53;;;;;;;2.63;2.00;;;8.70;98.00;;;;;;5013000;28;20459;-70
2023/12/12 01:35:23;;;;;;;3.60;2.37;;;8.70;98.00;;;;;;5012964;28;20459;-69
2023/12/12 01:37:50;;;;;;;4.93;2.50;;;8.70;98.00;;;;;;5012906;28;20452;-69
2023/12/12 01:40:17;;;;;;;6.27;2.40;;;8.70;98.00;;;;;;5012738;28;20600;-69
2023/12/12 01:42:44;;;;;;;5.00;2.30;;;8.70;98.00;;;;;;5012832;28;20676;-69
2023/12/12 01:45:11;;;;;;;6.10;2.50;;;8.70;98.00;;;;;;5012717;28;21021;-69
2023/12/12 01:47:39;;;;;;;6.00;2.40;;;8.70;98.00;;;;;;4995462;28;20459;-69
2023/12/12 01:50:09;;;;;;;3.80;2.30;;;8.80;98.00;;;;;;5012701;28;20459;-68
2023/12/12 01:52:37;;;;;;;4.40;2.20;;;8.80;98.00;;;;;;5012904;28;20451;-69
2023/12/12 01:55:05;;;;;;;6.70;1.93;;;8.80;98.00;;;;;;5012588;28;20467;-69
2023/12/12 01:57:32;;;;;;;5.40;2.37;;;8.80;98.00;;;;;;5012629;28;20456;-69
2023/12/12 02:00:00;;;;;;;7.93;2.00;;;8.90;98.00;;;;;;5012596;28;20455;-70
2023/12/12 02:02:30;;;;;;;8.13;2.60;;;8.90;98.00;;;;;;5012622;28;20458;-69
2023/12/12 02:04:57;;;;;;;4.80;2.30;;;8.90;98.00;;;;;;5012172;28;20497;-68
2023/12/12 02:07:28;;;;;;;3.57;2.00;;;8.90;98.00;;;;;;5012485;28;20447;-69
2023/12/12 02:09:55;;;;;;;5.90;2.00;;;9.10;98.00;;;;;;5012784;28;20448;-69
2023/12/12 02:12:23;;;;;;;4.30;2.50;;;9.10;98.00;;;;;;5012557;28;20494;-69
2023/12/12 02:14:50;;;;;;;2.60;1.90;;;9.00;98.00;;;;;;5012629;28;20447;-69
2023/12/12 02:17:17;;;;;;;3.80;2.40;;;9.00;98.00;;;;;;5012322;28;20980;-70
2023/12/12 02:19:45;;;;;;;5.00;2.70;;;9.00;98.00;;;;;;5012130;28;20451;-69
2023/12/12 02:22:13;;;;;;;4.87;2.37;;;8.90;98.00;;;;;;5012254;28;20458;-69
2023/12/12 02:24:41;;;;;;;4.80;2.00;;;8.90;98.00;;;;;;5012226;28;20511;-69
2023/12/12 02:27:08;;;;;;;5.10;2.13;;;9.00;98.00;;;;;;4993445;28;20459;-69
2023/12/12 02:29:35;;;;;;;5.03;2.40;;;8.90;98.00;;;;;;4994649;28;20494;-69
2023/12/12 02:32:03;;;;;;;4.13;2.10;;;8.90;98.00;;;;;;5011970;28;20513;-69
2023/12/12 02:34:30;;;;;;;5.07;2.00;;;8.80;98.00;;;;;;5011915;28;20459;-70
2023/12/12 02:36:57;;;;;;;7.23;2.37;;;8.80;98.00;;;;;;5011906;28;20462;-69
2023/12/12 02:39:25;;;;;;;4.77;2.07;;;8.80;98.00;;;;;;5011702;28;20527;-69
2023/12/12 02:41:52;;;;;;;4.67;2.33;;;8.90;98.00;;;;;;5011739;28;20493;-70
2023/12/12 02:44:19;;;;;;;3.80;2.10;;;8.90;98.00;;;;;;5011684;28;20483;-69
2023/12/12 02:46:46;;;;;;;3.60;2.40;;;8.90;98.00;;;;;;5011685;28;20953;-69
2023/12/12 02:49:13;;;;;;;3.27;2.00;;;8.90;98.00;;;;;;5011889;28;20458;-69
2023/12/12 02:51:40;;;;;;;2.60;2.00;;;9.00;98.00;;;;;;5010863;28;20953;-69
2023/12/12 02:54:09;;;;;;;4.60;2.10;;;9.00;98.00;;;;;;5011759;28;20456;-69
2023/12/12 02:56:38;;;;;;;6.83;2.30;;;9.00;98.00;;;;;;4993908;28;20495;-69
2023/12/12 02:59:05;;;;;;;3.10;1.90;;;8.90;98.00;;;;;;5011501;28;20513;-69
2023/12/12 03:01:32;;;;;;;5.93;2.20;;;9.00;98.00;;;;;;4993780;28;20459;-69
2023/12/12 03:03:59;;;;;;;5.37;2.17;;;8.90;98.00;;;;;;5011335;28;20483;-69
2023/12/12 03:06:26;;;;;;;6.30;2.00;;;8.80;98.00;;;;;;5011744;28;20822;-69
2023/12/12 03:08:53;;;;;;;3.93;1.73;;;8.70;98.00;;;;;;5011520;28;20462;-70
2023/12/12 03:11:20;;;;;;;6.77;2.00;;;8.60;98.00;;;;;;5011455;28;20451;-69
2023/12/12 03:13:49;;;;;;;4.70;2.00;;;8.60;98.00;;;;;;4993911;28;20447;-69
2023/12/12 03:16:16;;;;;;;5.03;2.20;;;8.60;98.00;;;;;;5011208;28;20455;-70
2023/12/12 03:18:43;;;;;;;5.90;2.20;;;8.50;98.00;;;;;;4993604;28;20513;-69
2023/12/12 03:21:11;;;;;;;3.53;1.93;;;8.40;98.00;;;;;;5011377;28;20479;-69
2023/12/12 03:23:38;;;;;;;3.27;2.10;;;8.30;98.00;;;;;;5011467;28;20808;-70
2023/12/12 03:26:08;;;;;;;5.17;1.83;;;8.30;98.00;;;;;;5011380;28;20495;-69
2023/12/12 03:28:35;;;;;;;3.20;1.90;;;8.30;98.00;;;;;;5011613;28;21015;-69
2023/12/12 03:31:04;;;;;;;3.93;2.10;;;8.20;98.00;;;;;;5011407;28;20471;-69
2023/12/12 03:33:31;;;;;;;3.47;1.97;;;8.10;98.00;;;;;;5011455;28;20455;-69
2023/12/12 03:35:59;;;;;;;6.13;2.20;;;8.00;98.00;;;;;;5011245;28;20977;-69
2023/12/12 03:38:26;;;;;;;4.33;2.43;;;8.10;98.00;;;;;;5012773;28;20466;-70
2023/12/12 03:40:53;;;;;;;4.37;2.03;;;8.00;98.00;;;;;;5011275;28;20980;-70
2023/12/12 03:43:20;;;;;;;5.90;2.23;;;8.00;98.00;;;;;;5012470;28;20946;-68
2023/12/12 03:45:47;;;;;;;4.23;2.10;;;7.90;98.00;;;;;;5011314;28;20484;-69
2023/12/12 03:48:15;;;;;;;5.57;2.07;;;7.90;98.00;;;;;;5011134;28;20441;-69
2023/12/12 03:50:43;;;;;;;5.80;2.00;;;7.90;98.00;;;;;;5011285;28;20482;-69
2023/12/12 03:53:10;;;;;;;3.67;1.70;;;7.90;98.00;;;;;;4993943;28;20465;-69
2023/12/12 03:55:37;;;;;;;7.20;2.30;;;7.90;98.00;;;;;;5011098;28;20471;-69
2023/12/12 03:58:05;;;;;;;2.50;1.87;;;7.90;98.00;;;;;;5011330;28;20479;-68
2023/12/12 04:00:32;;;;;;;3.43;2.07;;;7.80;98.00;;;;;;5011415;28;20456;-69
2023/12/12 04:03:00;;;;;;;4.47;2.50;;;8.00;98.00;;;;;;4995158;28;20491;-69
2023/12/12 04:05:28;;;;;;;7.20;2.23;;;8.00;98.00;;;;;;5014836;28;21031;-69
2023/12/12 04:07:55;;;;;;;2.87;1.60;;;8.10;98.00;;;;;;5014930;28;20892;-69
2023/12/12 04:10:22;;;;;;;5.00;1.70;;;8.10;98.00;;;;;;4997403;28;20444;-69
2023/12/12 04:12:49;;;;;;;4.17;2.00;;;8.20;98.00;;;;;;5014733;28;20461;-68
2023/12/12 04:15:16;;;;;;;2.63;1.80;;;8.00;98.00;;;;;;5014035;28;20462;-69
2023/12/12 04:17:44;;;;;;;3.00;1.83;;;8.00;98.00;;;;;;5014523;28;20461;-69
2023/12/12 04:20:12;;;;;;;3.93;1.93;;;8.00;98.00;;;;;;5014931;28;20451;-69
2023/12/12 04:22:41;;;;;;;3.10;1.70;;;8.10;98.00;;;;;;5014379;28;20455;-68
2023/12/12 04:25:08;;;;;;;1.87;1.50;;;8.00;98.00;;;;;;5014497;28;20541;-70
2023/12/12 04:27:36;;;;;;;7.83;2.27;;;8.10;98.00;;;;;;5014383;28;20489;-69
2023/12/12 04:30:04;;;;;;;2.80;1.77;;;8.00;98.00;;;;;;4996856;28;20462;-69
2023/12/12 04:32:31;;;;;;;4.13;1.50;;;8.00;98.00;;;;;;5014039;28;20450;-69
2023/12/12 04:35:00;;;;;;;5.80;2.07;;;7.90;98.00;;;;;;5014327;28;20451;-69
2023/12/12 04:37:29;;;;;;;3.97;1.87;;;7.80;98.00;;;;;;5014037;28;20449;-69
2023/12/12 04:39:59;;;;;;;3.50;1.70;;;7.80;98.00;;;;;;5014163;28;20465;-69
2023/12/12 04:42:26;;;;;;;3.87;1.83;;;7.80;98.00;;;;;;5014141;28;20497;-69
2023/12/12 04:44:53;;;;;;;3.53;1.83;;;7.60;98.00;;;;;;4996599;28;20493;-69
2023/12/12 04:47:20;;;;;;;2.47;1.67;;;7.60;98.00;;;;;;5013617;28;20475;-69
2023/12/12 04:49:48;;;;;;;1.90;1.70;;;7.70;98.00;;;;;;5013940;28;20537;-69
2023/12/12 04:52:16;;;;;;;6.13;1.80;;;7.70;98.00;;;;;;5013824;28;21017;-68
2023/12/12 04:54:43;;;;;;;2.67;1.90;;;7.60;98.00;;;;;;5013814;28;20799;-69
2023/12/12 04:57:11;;;;;;;2.43;2.03;;;7.40;98.00;;;;;;5013962;28;20464;-69
2023/12/12 04:59:38;;;;;;;3.90;2.10;;;7.50;98.00;;;;;;5002498;28;20577;-69
2023/12/12 05:02:05;;;;;;;5.70;2.10;;;7.30;98.00;;;;;;5033515;28;20457;-69
2023/12/12 05:04:33;;;;;;;3.30;2.20;;;7.40;98.00;;;;;;5015853;28;20853;-69
2023/12/12 05:07:00;;;;;;;4.77;2.03;;;7.30;98.00;;;;;;5033306;28;20471;-69
2023/12/12 05:09:27;;;;;;;4.97;1.93;;;7.30;98.00;;;;;;5032728;28;20465;-68
2023/12/12 05:11:54;;;;;;;6.37;2.53;;;7.30;98.00;;;;;;5033063;28;20893;-69
2023/12/12 05:14:22;;;;;;;4.40;2.07;;;7.20;98.00;;;;;;5032626;28;20523;-68
2023/12/12 05:16:50;;;;;;;4.90;2.23;;;7.10;98.00;;;;;;5032961;28;20965;-69
2023/12/12 05:19:17;;;;;;;6.03;2.40;;;7.10;98.00;;;;;;5033124;28;20458;-69
2023/12/12 05:21:44;;;;;;;4.20;2.00;;;7.10;98.00;;;;;;4998802;28;20448;-69
2023/12/12 05:24:11;;;;;;;5.30;2.37;;;7.20;98.00;;;;;;5033143;28;20455;-69
2023/12/12 05:26:46;;;;;;;5.17;2.50;;;7.10;98.00;;;;;;5032768;28;20478;-69
2023/12/12 05:29:13;;;;;;;5.83;2.10;;;6.90;98.00;;;;;;5032917;28;20795;-69
2023/12/12 05:31:42;;;;;;;3.97;2.37;;;6.90;98.00;;;;;;5032747;28;20462;-69
2023/12/12 05:34:09;;;;;;;5.37;2.40;;;7.00;98.00;;;;;;5032836;28;20457;-68
2023/12/12 05:36:36;;;;;;;4.23;2.30;;;6.90;98.00;;;;;;5032772;28;20972;-68
2023/12/12 05:39:03;;;;;;;4.10;1.97;;;7.00;98.00;;;;;;5033003;28;20512;-69
2023/12/12 05:41:32;;;;;;;2.13;1.77;;;7.00;98.00;;;;;;5032841;28;20548;-69
2023/12/12 05:44:00;;;;;;;4.50;2.27;;;7.00;98.00;;;;;;5032674;28;20461;-69
2023/12/12 05:46:27;;;;;;;3.87;2.13;;;6.80;98.00;;;;;;5032759;28;20492;-68
2023/12/12 05:48:55;;;;;;;5.67;2.27;;;6.70;98.00;;;;;;5032821;28;20468;-68
2023/12/12 05:51:22;;;;;;;5.63;2.00;;;6.70;98.00;;;;;;5015179;28;20464;-69
2023/12/12 05:53:50;;;;;;;3.73;2.03;;;6.60;98.00;;;;;;5032982;28;20470;-69
2023/12/12 05:56:18;;;;;;;2.83;1.90;;;6.60;98.00;;;;;;5015088;28;20474;-70
2023/12/12 05:58:45;;;;;;;4.37;2.20;;;6.60;98.00;;;;;;5015102;28;20451;-69
2023/12/12 06:01:12;;;;;;;4.27;2.53;;;6.50;98.00;;;;;;5032544;28;20859;-68
2023/12/12 06:03:40;;;;;;;4.30;2.10;;;6.50;98.00;;;;;;5032318;28;20452;-68
2023/12/12 06:06:09;;;;;;;6.50;2.33;;;6.50;98.00;;;;;;5032199;28;20639;-69
2023/12/12 06:08:37;;;;;;;5.10;2.53;;;6.70;98.00;;;;;;5014785;28;20460;-69
2023/12/12 06:11:06;;;;;;;5.07;2.50;;;6.80;98.00;;;;;;5032075;28;20457;-68
2023/12/12 06:13:33;;;;;;;4.87;2.67;;;6.90;98.00;;;;;;5032114;28;20952;-69
2023/12/12 06:16:01;;;;;;;4.03;2.50;;;6.80;98.00;;;;;;5031907;28;20457;-70
2023/12/12 06:18:28;;;;;;;7.90;2.23;;;6.70;98.00;;;;;;5014425;28;20459;-68
2023/12/12 06:20:56;;;;;;;4.40;2.17;;;6.60;98.00;;;;;;5014348;28;20484;-68
2023/12/12 06:23:24;;;;;;;4.10;2.37;;;6.50;98.00;;;;;;4998014;28;20452;-69
2023/12/12 06:25:52;;;;;;;5.43;2.63;;;6.50;98.00;;;;;;5030815;28;20483;-69
2023/12/12 06:28:18;;;;;;;6.50;2.77;;;6.60;98.00;;;;;;5014262;28;20450;-68
2023/12/12 06:30:46;;;;;;;3.50;2.30;;;6.60;98.00;;;;;;5031539;28;20455;-68
2023/12/12 06:33:13;;;;;;;5.90;2.50;;;6.70;98.00;;;;;;5014313;28;20485;-69
2023/12/12 06:35:41;;;;;;;6.00;3.00;;;6.80;98.00;;;;;;5013777;28;20817;-69
2023/12/12 06:38:08;;;;;;;6.43;2.63;;;6.80;98.00;;;;;;5014168;28;20453;-69
2023/12/12 06:40:37;;;;;;;4.53;2.30;;;6.80;98.00;;;;;;5031573;28;20877;-68
2023/12/12 06:43:04;;;;;;;6.50;2.27;;;6.80;98.00;;;;;;5031516;28;20550;-69
2023/12/12 06:45:31;;;;;;;3.60;2.33;;;6.80;98.00;;;;;;5031089;28;20559;-69
2023/12/12 06:47:58;;;;;;;4.90;2.57;;;6.80;98.00;;;;;;5031455;28;20453;-69
2023/12/12 06:50:25;;;;;;;9.23;2.70;;;6.80;98.00;;;;;;5031545;28;20477;-69
2023/12/12 06:52:51;;;;;;;8.40;3.30;;;6.70;98.00;;;;;;5031059;28;20460;-68
2023/12/12 06:55:18;;;;;;;5.30;2.30;;;6.70;98.00;;;;;;5031404;28;20469;-69
2023/12/12 06:57:47;;;;;;;3.37;2.47;;;6.70;98.00;;;;;;5012756;28;20984;-69
2023/12/12 07:00:15;;;;;;;4.03;2.30;;;6.70;98.00;;;;;;5031398;28;20452;-68
2023/12/12 07:02:43;;;;;;;3.53;2.20;;;6.80;98.00;;;;;;5013773;28;20482;-64
2023/12/12 07:05:10;;;;;;;6.33;2.63;;;7.10;98.00;;;;;;5013710;28;20539;-63
2023/12/12 07:07:37;;;;;;;6.30;2.60;;;7.10;98.00;;;;;;5030949;28;20464;-64
2023/12/12 07:10:06;;;;;;;7.80;2.33;;;7.00;98.00;;;;;;5013667;28;20960;-64
2023/12/12 07:12:33;;;;;;;4.60;2.67;;;7.00;98.00;;;;;;5012845;28;20496;-64
2023/12/12 07:15:02;;;;;;;7.37;2.90;;;7.00;98.00;;;;;;5012629;28;20456;-64
2023/12/12 07:17:29;;;;;;;5.93;2.83;;;7.20;98.00;;;;;;5030554;28;20939;-64
2023/12/12 07:19:56;;;;;;;4.60;2.93;;;7.40;98.00;;;;;;5013486;28;20457;-64
2023/12/12 07:22:25;;;;;;;8.20;3.03;;;7.30;98.00;;;;;;5031113;28;20457;-64
2023/12/12 07:24:52;;;;;;;11.93;3.03;;;7.00;98.00;;;;;;5030971;28;20464;-64
2023/12/12 07:27:19;;;;;;;4.20;2.47;;;7.00;98.00;;;;;;5013466;28;20558;-64
2023/12/12 07:29:46;;;;;;;9.80;3.00;;;7.10;98.00;;;;;;5030891;28;20468;-64
2023/12/12 07:32:14;;;;;;;6.27;2.60;;;7.10;98.00;;;;;;5030958;28;20955;-64
2023/12/12 07:34:41;;;;;;;5.97;2.90;;;7.20;98.00;;;;;;5031176;28;20462;-64
2023/12/12 07:37:09;;;;;;;6.20;2.60;;;7.20;98.00;;;;;;5031077;28;20515;-64
2023/12/12 07:39:36;;;;;;;6.60;2.57;;;7.10;98.00;;;;;;5017795;28;20814;-64
2023/12/12 07:42:03;;;;;;;4.10;2.53;;;7.20;98.00;;;;;;5035116;28;20460;-64
2023/12/12 07:44:30;;;;;;;5.87;3.03;;;7.30;98.00;;;;;;5035579;28;20871;-64
2023/12/12 07:47:01;;;;;;;7.00;3.50;;;7.20;98.00;;;;;;5034873;28;21008;-64
2023/12/12 07:49:29;;;;;;;5.80;3.27;;;7.20;98.00;;;;;;5034984;28;20456;-64
2023/12/12 07:51:56;;;;;;;5.13;2.70;;;7.20;98.00;;;;;;5034556;28;20456;-64
2023/12/12 07:54:23;;;;;;;7.80;3.50;;;7.20;98.00;;;;;;5034853;28;20454;-64
2023/12/12 07:56:50;;;;;;;5.70;3.40;;;7.10;98.00;;;;;;5034671;28;20830;-64
2023/12/12 07:59:18;;;;;;;7.10;3.23;;;7.10;98.00;;;;;;5035049;28;20477;-64
2023/12/12 08:01:46;;;;;;;6.10;3.37;;;7.10;98.00;;;;;;5034210;28;20492;-64
2023/12/12 08:04:13;;;;;;;9.37;3.50;;;7.20;98.00;;;;;;5016806;28;20515;-64
2023/12/12 08:06:42;;;;;;;12.47;3.50;;;7.20;98.00;;;;;;5034445;28;20565;-64
2023/12/12 08:09:09;;;;;;;8.73;3.30;;;7.30;98.00;;;;;;5034463;28;20541;-64
2023/12/12 08:11:36;;;;;;;6.70;3.27;;;7.20;98.00;;;;;;5034653;28;20457;-64
2023/12/12 08:14:03;;;;;;;7.60;3.53;;;7.30;98.00;;;;;;5034263;28;20458;-64
2023/12/12 08:16:31;;;;;;;6.13;3.53;;;7.40;98.00;;;;;;5034560;28;20462;-64
2023/12/12 08:19:02;;;;;;;11.00;3.90;;;7.40;98.00;;;;;;5033963;28;20464;-64
2023/12/12 08:21:30;;;;;;;8.30;3.67;;;7.50;98.00;;;;;;5034212;28;20820;-64
2023/12/12 08:24:03;;;;;;;7.03;3.50;;;7.50;98.00;;;;;;5034106;28;20901;-64
2023/12/12 08:26:30;;;;;;;9.90;4.13;;;7.60;98.00;;;;;;5034310;28;20487;-64
2023/12/12 08:28:57;;;;;;;9.30;3.40;;;7.60;98.00;;;;;;5013453;28;20521;-66
2023/12/12 08:31:25;;;;;;;5.03;3.37;;;7.50;98.00;;;;;;5014163;28;20478;-64
2023/12/12 08:33:52;;;;;;;7.20;3.70;;;7.50;98.00;;;;;;5014213;28;20462;-64
2023/12/12 08:36:20;;;;;;;10.87;3.93;;;7.50;98.00;;;;;;5014255;28;20463;-64
2023/12/12 08:38:50;;;;;;;7.80;4.30;;;7.50;98.00;;;;;;5014673;28;20462;-64
2023/12/12 08:41:19;;;;;;;9.80;4.40;;;7.70;98.00;;;;;;5014694;28;20448;-64
2023/12/12 08:43:46;;;;;;;7.43;4.10;;;8.00;98.00;;;;;;5014447;28;20868;-64
2023/12/12 08:46:15;;;;;;;14.77;4.57;;;8.30;98.00;;;;;;5014342;28;20487;-64
2023/12/12 08:48:44;;;;;;;9.70;3.87;;;8.20;98.00;;;;;;5013494;28;20455;-64
2023/12/12 08:51:11;;;;;;;10.10;4.57;;;8.10;98.00;;;;;;4996132;28;20924;-64
2023/12/12 08:53:39;;;;;;;9.10;4.17;;;8.00;98.00;;;;;;5013699;28;20458;-64
2023/12/12 08:56:14;;;;;;;6.57;3.63;;;8.00;98.00;;;;;;5013580;28;20475;-64
2023/12/12 08:58:43;;;;;;;14.10;4.60;;;8.10;98.00;;;;;;5014073;28;20467;-64
2023/12/12 09:01:10;;;;;;;12.57;4.43;;;8.30;98.00;;;;;;5014187;28;20804;-64
2023/12/12 09:03:37;;;;;;;8.27;4.30;;;8.30;98.00;;;;;;5014305;28;20458;-64
2023/12/12 09:06:04;;;;;;;9.50;4.50;;;8.30;98.00;;;;;;5014240;28;20488;-64
2023/12/12 09:08:31;;;;;;;9.67;4.87;;;8.40;98.00;;;;;;5014222;28;20545;-64
2023/12/12 09:10:59;;;;;;;11.60;4.63;;;8.40;98.00;;;;;;4996601;28;20455;-63
2023/12/12 09:13:26;;;;;;;11.07;4.37;;;8.20;98.00;;;;;;5013999;28;20452;-64
2023/12/12 09:15:55;;;;;;;11.83;4.80;;;8.10;98.00;;;;;;5013802;28;20453;-64
2023/12/12 09:18:22;;;;;;;15.77;4.70;;;8.10;98.00;;;;;;4996666;28;20545;-64
2023/12/12 09:20:50;;;;;;;9.80;4.60;;;8.10;98.00;;;;;;5013796;28;20458;-63
2023/12/12 09:23:17;;;;;;;7.93;4.30;;;8.20;98.00;;;;;;5013810;28;20482;-65
2023/12/12 09:25:45;;;;;;;12.33;4.40;;;8.30;98.00;;;;;;5013847;28;20452;-65
2023/12/12 09:28:13;;;;;;;9.97;4.53;;;8.50;98.00;;;;;;4996433;28;20494;-63
2023/12/12 09:30:40;;;;;;;8.00;3.90;;;8.50;98.00;;;;;;5013698;28;20467;-64
2023/12/12 09:33:09;;;;;;;9.13;4.27;;;8.70;98.00;;;;;;5013258;28;20490;-62
2023/12/12 09:35:36;;;;;;;6.30;3.90;;;8.70;98.00;;;;;;5012419;28;20506;-63
2023/12/12 09:38:03;;;;;;;7.07;3.80;;;8.70;98.00;;;;;;5013592;28;20540;-63
2023/12/12 09:40:31;;;;;;;9.20;3.90;;;8.70;98.00;;;;;;5013418;28;20455;-63
2023/12/12 09:42:58;;;;;;;6.27;3.80;;;8.70;98.00;;;;;;5013516;28;21020;-63
2023/12/12 09:45:26;;;;;;;8.07;4.40;;;8.70;98.00;;;;;;5013296;28;20509;-63
2023/12/12 09:47:55;;;;;;;13.40;4.40;;;8.60;98.00;;;;;;5013166;28;20513;-63
2023/12/12 09:50:24;;;;;;;8.87;4.23;;;8.60;98.00;;;;;;4995665;28;20462;-64
2023/12/12 09:52:54;;;;;;;10.10;4.50;;;8.60;98.00;;;;;;5013397;28;20908;-64
2023/12/12 09:55:23;;;;;;;12.20;4.30;;;8.70;98.00;;;;;;4996051;28;20463;-64
2023/12/12 09:57:50;;;;;;;7.83;3.90;;;8.70;98.00;;;;;;5013422;28;20808;-64
2023/12/12 10:00:21;;;;;;;9.60;4.30;;;8.80;98.00;;;;;;5013181;28;20536;-66
2023/12/12 10:02:50;;;;;;;8.97;4.60;;;8.80;98.00;;;;;;5013328;28;20460;-64
2023/12/12 10:05:17;;;;;;;8.50;4.50;;;8.70;98.00;;;;;;5012973;28;20454;-63
2023/12/12 10:07:48;;;;;;;12.30;4.67;;;8.80;98.00;;;;;;4995377;28;20486;-63
2023/12/12 10:10:16;;;;;;;14.43;4.97;;;8.90;98.00;;;;;;5012798;28;20888;-64
2023/12/12 10:12:43;;;;;;;10.40;4.37;;;8.80;98.00;;;;;;5013251;28;20867;-64
2023/12/12 10:15:28;;;;;;;9.80;4.63;;;9.00;98.00;;;;;;5013373;28;20459;-64
2023/12/12 10:17:57;;;;;;;6.93;4.00;;;9.10;98.00;;;;;;5012571;28;20461;-63
2023/12/12 10:20:26;;;;;;;9.67;4.53;;;9.10;98.00;;;;;;5012905;28;20443;-63
2023/12/12 10:22:58;;;;;;;9.00;3.97;;;9.10;98.00;;;;;;5013114;28;20699;-64
2023/12/12 10:25:25;;;;;;;10.17;4.63;;;9.20;98.00;;;;;;5012852;28;20516;-64
2023/12/12 10:27:53;;;;;;;8.87;4.10;;;9.30;98.00;;;;;;5012292;28;20499;-64
2023/12/12 10:30:22;;;;;;;9.70;4.47;;;9.20;98.00;;;;;;5012621;28;20468;-64
2023/12/12 10:32:51;;;;;;;9.17;4.80;;;9.20;98.00;;;;;;5012348;28;20542;-65
2023/12/12 10:35:18;;;;;;;11.77;4.93;;;9.30;98.00;;;;;;5012578;28;20860;-65
2023/12/12 10:37:46;;;;;;;13.37;4.80;;;9.30;98.00;;;;;;5012242;28;20479;-64
2023/12/12 10:40:19;;;;;;;10.60;5.20;;;9.20;98.00;;;;;;5010626;28;20456;-64
2023/12/12 10:42:47;;;;;;;11.73;5.10;;;9.20;98.00;;;;;;5011488;28;20787;-65
2023/12/12 10:45:15;;;;;;;11.43;4.67;;;9.10;98.00;;;;;;5010790;28;20455;-65
2023/12/12 10:47:45;;;;;;;9.77;4.70;;;9.10;98.00;;;;;;5011935;28;20491;-64
2023/12/12 10:50:14;;;;;;;14.10;4.73;;;9.00;98.00;;;;;;5012243;28;20451;-64
2023/12/12 10:52:43;;;;;;;11.83;5.17;;;9.00;98.00;;;;;;5012403;28;20877;-65
2023/12/12 10:55:10;;;;;;;10.77;5.13;;;9.00;98.00;;;;;;5012367;28;20494;-64
2023/12/12 10:57:42;;;;;;;12.77;5.03;;;9.10;98.00;;;;;;5012118;28;20951;-64
2023/12/12 11:00:14;;;;;;;9.23;4.50;;;9.00;98.00;;;;;;5012285;28;20835;-64
2023/12/12 11:02:42;;;;;;;8.33;3.93;;;9.00;98.00;;;;;;5012127;28;20494;-64
2023/12/12 11:05:11;;;;;;;10.73;4.77;;;9.10;98.00;;;;;;5012159;28;20451;-65
2023/12/12 11:07:39;;;;;;;9.27;4.60;;;9.20;98.00;;;;;;5012108;28;20498;-64
2023/12/12 11:10:09;;;;;;;9.90;4.50;;;9.30;98.00;;;;;;5012110;28;20458;-66
2023/12/12 11:12:42;;;;;;;18.33;5.77;;;9.50;98.00;;;;;;5011662;28;20498;-64
2023/12/12 11:15:11;;;;;;;14.47;5.40;;;9.50;98.00;;;;;;5012254;28;20458;-64
2023/12/12 11:17:41;;;;;;;11.27;5.17;;;9.50;98.00;;;;;;5012113;28;20451;-65
2023/12/12 11:20:13;;;;;;;10.90;5.07;;;9.60;98.00;;;;;;5012170;28;20867;-65
2023/12/12 11:22:46;;;;;;;12.80;5.73;;;9.70;98.00;;;;;;5011975;28;20488;-64
2023/12/12 11:25:19;;;;;;;8.07;4.80;;;9.60;98.00;;;;;;5012043;28;20462;-64
2023/12/12 11:27:49;;;;;;;8.23;4.87;;;9.60;98.00;;;;;;5011911;28;20486;-64
2023/12/12 11:30:18;;;;;;;10.30;5.17;;;9.60;98.00;;;;;;4994452;28;20561;-64
2023/12/12 11:32:46;;;;;;;12.70;5.23;;;9.60;98.00;;;;;;5011879;28;20937;-64
2023/12/12 11:35:29;;;;;;;12.57;5.77;;;9.60;98.00;;;;;;5012084;28;20459;-64
2023/12/12 11:37:56;;;;;;;14.73;5.33;;;9.70;98.00;;;;;;5011035;28;20953;-64
2023/12/12 11:40:25;;;;;;;13.73;6.33;;;9.80;98.00;;;;;;5011935;28;20469;-64
2023/12/12 11:42:56;;;;;;;8.90;4.37;;;9.80;98.00;;;;;;5011796;28;20459;-65
2023/12/12 11:45:34;;;;;;;7.93;4.00;;;9.80;98.00;;;;;;5011868;28;20453;-65
2023/12/12 11:48:02;;;;;;;8.90;4.27;;;9.80;98.00;;;;;;5011470;28;20486;-65
2023/12/12 11:50:34;;;;;;;6.50;3.63;;;9.80;98.00;;;;;;5011735;28;20461;-65
2023/12/12 11:53:04;;;;;;;8.87;4.00;;;9.70;98.00;;;;;;5011613;28;20453;-64
2023/12/12 11:55:34;;;;;;;6.30;3.80;;;9.90;98.00;;;;;;5011960;28;20472;-64
2023/12/12 11:58:05;;;;;;;13.13;4.17;;;10.00;98.00;;;;;;5011930;28;20466;-64
2023/12/12 12:00:38;;;;;;;10.03;3.93;;;9.90;98.00;;;;;;5012082;28;21012;-65
2023/12/12 12:03:08;;;;;;;7.00;4.00;;;9.90;98.00;;;;;;5011587;28;20459;-65
2023/12/12 12:05:35;;;;;;;11.03;5.10;;;9.90;98.00;;;;;;5011690;28;21041;-64
2023/12/12 12:08:03;;;;;;;10.60;4.97;;;9.80;98.00;;;;;;5011557;28;20493;-65
2023/12/12 12:10:30;;;;;;;7.00;4.23;;;9.80;98.00;;;;;;5011715;28;20894;-65
2023/12/12 12:12:58;;;;;;;6.87;3.53;;;9.80;98.00;;;;;;4993874;28;20451;-64
2023/12/12 12:15:28;;;;;;;8.03;3.87;;;9.80;98.00;;;;;;5011194;28;20870;-64
2023/12/12 12:17:56;;;;;;;7.80;4.50;;;9.90;98.00;;;;;;5011296;28;20818;-65
2023/12/12 12:20:23;;;;;;;9.90;4.87;;;10.20;98.00;;;;;;5011554;28;20451;-65
2023/12/12 12:22:52;;;;;;;9.90;4.40;;;10.20;98.00;;;;;;5011086;28;20455;-65
2023/12/12 12:25:26;;;;;;;12.87;5.20;;;10.20;98.00;;;;;;5014641;28;20456;-65
2023/12/12 12:27:55;;;;;;;5.80;3.70;;;10.30;98.00;;;;;;5014830;28;20488;-65
2023/12/12 12:30:25;;;;;;;9.27;4.53;;;10.20;98.00;;;;;;5014494;28;20526;-65
2023/12/12 12:33:06;;;;;;;8.10;4.13;;;10.30;98.00;;;;;;5014127;28;20451;-65
2023/12/12 12:35:33;;;;;;;6.20;3.73;;;10.10;98.00;;;;;;5014873;28;20494;-65
2023/12/12 12:38:02;;;;;;;8.13;3.87;;;10.10;98.00;;;;;;5014620;28;20460;-64
2023/12/12 12:40:34;;;;;;;7.73;4.40;;;10.00;98.00;;;;;;4997565;28;20974;-65
2023/12/12 12:43:04;;;;;;;6.90;3.53;;;10.00;98.00;;;;;;5014367;28;20464;-65
2023/12/12 12:45:32;;;;;;;6.30;3.57;;;10.00;98.00;;;;;;5014490;28;20546;-65
2023/12/12 12:47:59;;;;;;;8.17;3.57;;;10.00;98.00;;;;;;5014365;28;20922;-65
2023/12/12 12:50:29;;;;;;;7.03;4.03;;;10.00;98.00;;;;;;5014569;28;20512;-65
2023/12/12 12:52:57;;;;;;;7.90;3.77;;;10.10;98.00;;;;;;4997150;28;20581;-65
2023/12/12 12:55:24;;;;;;;6.00;3.50;;;10.20;98.00;;;;;;5014511;28;20472;-65
2023/12/12 12:57:51;;;;;;;7.63;3.97;;;10.40;98.00;;;;;;5014376;28;20458;-65
2023/12/12 13:00:18;;;;;;;6.37;3.00;;;10.40;98.00;;;;;;5014394;28;20453;-65